Time;durP1;ratioP1;P1;durP2;ratioP2;P2;SDS_P1;SDS_P2;PMS_P1;PMS_P2;Temp;Humidity;BMP_temperature;BMP_pressure;BME280_temperature;BME280_humidity;BME280_pressure;Samples;Min_cycle;Max_cycle;Signal;HPM_P1;HPM_P2
2022/11/24 00:06:48;;;;;;;4.07;0.80;;;;;;;;;;20870388;28;20230;-64
2022/11/24 00:16:49;;;;;;;2.63;0.93;;;;;;;;;;20870064;28;20332;-64
2022/11/24 00:26:52;;;;;;;1.23;0.30;;;;;;;;;;20868552;28;20245;-64
2022/11/24 00:36:54;;;;;;;2.73;0.33;;;;;;;;;;20868785;28;20299;-63
2022/11/24 00:46:56;;;;;;;2.60;1.00;;;;;;;;;;20851923;28;20226;-63
2022/11/24 00:56:57;;;;;;;1.97;0.50;;;;;;;;;;20851182;28;20600;-63
2022/11/24 01:06:59;;;;;;;1.67;0.73;;;;;;;;;;20868098;28;20206;-63
2022/11/24 01:17:01;;;;;;;1.30;0.33;;;;;;;;;;20867247;28;20279;-63
2022/11/24 01:27:03;;;;;;;1.07;0.50;;;;;;;;;;20867762;28;20221;-63
2022/11/24 01:37:05;;;;;;;0.97;0.40;;;;;;;;;;20882049;28;20579;-63
2022/11/24 01:47:30;;;;;;;0.67;0.50;;;;;;;;;;20864520;28;20688;-63
2022/11/24 01:57:37;;;;;;;4.43;0.60;;;7.80;99.90;;;;;;20887400;28;20225;-63
2022/11/24 02:07:39;;;;;;;1.03;0.37;;;;;;;;;;20862801;28;20236;-63
2022/11/24 02:17:41;;;;;;;4.80;1.13;;;;;;;;;;20894929;28;20295;-63
2022/11/24 02:27:44;;;;;;;4.27;1.40;;;7.60;99.90;;;;;;20861528;28;20206;-63
2022/11/24 02:37:46;;;;;;;4.67;1.40;;;;;;;;;;20860864;28;20234;-64
2022/11/24 02:47:48;;;;;;;0.80;0.40;;;;;;;;;;20858261;28;20221;-64
2022/11/24 02:57:49;;;;;;;3.73;0.90;;;7.10;99.90;;;;;;20875436;28;20217;-63
2022/11/24 03:07:51;;;;;;;6.90;0.80;;;;;;;;;;20842403;28;20552;-63
2022/11/24 03:17:55;;;;;;;4.63;0.87;;;7.70;99.90;;;;;;20857431;28;20252;-63
2022/11/24 03:27:57;;;;;;;3.87;0.97;;;;;;;;;;20857500;28;20210;-63
2022/11/24 03:37:59;;;;;;;1.70;0.70;;;;;;;;;;20872240;28;20229;-63
2022/11/24 03:48:01;;;;;;;3.67;0.40;;;;;;;;;;20905186;22;20241;-66
2022/11/24 03:58:03;;;;;;;2.40;0.83;;;;;;;;;;20984853;28;20245;-69
2022/11/24 04:08:05;;;;;;;1.10;0.50;;;7.70;99.90;;;;;;20966723;28;20259;-69
2022/11/24 04:18:08;;;;;;;1.33;0.53;;;7.70;99.90;;;;;;20965501;28;20286;-68
2022/11/24 04:28:10;;;;;;;2.10;0.63;;;;;;;;;;20983259;28;20217;-70
2022/11/24 04:38:12;;;;;;;0.53;0.47;;;;;;;;;;20978110;28;20286;-70
2022/11/24 04:48:14;;;;;;;1.97;0.80;;;;;;;;;;20964756;28;20224;-69
2022/11/24 04:58:16;;;;;;;2.60;0.80;;;;;;;;;;20974447;28;20703;-70
2022/11/24 05:08:18;;;;;;;0.70;0.40;;;;;;;;;;20974677;28;20226;-69
2022/11/24 05:18:21;;;;;;;1.53;0.83;;;;;;;;;;20979248;28;20224;-69
2022/11/24 05:28:22;;;;;;;3.63;0.77;;;;;;;;;;20978864;28;20213;-69
2022/11/24 05:38:25;;;;;;;1.37;0.73;;;;;;;;;;20995903;28;20647;-70
2022/11/24 05:48:27;;;;;;;1.63;0.90;;;;;;;;;;20978274;28;20209;-69
2022/11/24 05:58:28;;;;;;;1.23;0.67;;;;;;;;;;20977671;28;20620;-70
2022/11/24 06:08:30;;;;;;;2.23;0.60;;;;;;;;;;20993108;28;20225;-70
2022/11/24 06:18:32;;;;;;;2.97;1.03;;;;;;;;;;20992218;28;20286;-70
2022/11/24 06:28:35;;;;;;;2.80;0.83;;;7.70;99.90;;;;;;20993584;28;20197;-70
2022/11/24 06:38:36;;;;;;;7.07;0.83;;;;;;;;;;20989596;28;20213;-70
2022/11/24 06:48:38;;;;;;;1.97;0.67;;;;;;;;;;20989986;28;20209;-70
2022/11/24 06:58:41;;;;;;;1.83;0.50;;;;;;;;;;20989205;28;20638;-70
2022/11/24 07:08:43;;;;;;;1.10;0.50;;;;;;;;;;20988749;28;20193;-70
2022/11/24 07:18:46;;;;;;;0.50;0.30;;;;;;;;;;20987395;28;20229;-70
2022/11/24 07:28:48;;;;;;;2.57;0.83;;;;;;;;;;20988055;28;20284;-70
2022/11/24 07:38:50;;;;;;;2.57;0.70;;;;;;;;;;20987214;28;20262;-70
2022/11/24 07:48:51;;;;;;;2.20;0.60;;;;;;;;;;20968272;28;20225;-70
2022/11/24 07:58:53;;;;;;;2.27;0.97;;;;;;;;;;20968265;28;20224;-67
2022/11/24 08:08:55;;;;;;;1.47;0.53;;;;;;;;;;20979958;28;20672;-69
2022/11/24 08:18:57;;;;;;;1.70;0.50;;;;;;;;;;20982933;28;20224;-69
2022/11/24 08:28:59;;;;;;;1.70;0.63;;;;;;;;;;20957017;28;20225;-68
2022/11/24 08:39:01;;;;;;;1.20;0.80;;;;;;;;;;20883742;28;20221;-68
2022/11/24 08:49:04;;;;;;;2.03;0.77;;;;;;;;;;20916377;28;20251;-68
2022/11/24 08:59:05;;;;;;;4.23;0.80;;;;;;;;;;20916439;28;20214;-68
2022/11/24 09:09:07;;;;;;;2.27;0.73;;;;;;;;;;20897954;28;20240;-69
2022/11/24 09:19:09;;;;;;;0.90;0.40;;;;;;;;;;20914871;28;20712;-69
2022/11/24 09:29:12;;;;;;;1.50;0.57;;;;;;;;;;20976109;28;20257;-68
2022/11/24 09:39:14;;;;;;;1.10;0.40;;;;;;;;;;20991203;28;20217;-68
2022/11/24 09:49:30;;;;;;;0.80;0.40;;;;;;;;;;20924272;23;20310;-67
2022/11/24 09:59:32;;;;;;;1.50;0.70;;;;;;;;;;20990827;28;20225;-66
2022/11/24 10:09:54;;;;;;;3.40;0.40;;;;;;;;;;20991531;28;20262;-66
2022/11/24 10:20:15;;;;;;;0.30;0.30;;;9.20;99.90;;;;;;20958472;28;20213;-66
2022/11/24 10:30:19;;;;;;;3.53;0.50;;;;;;;;;;20989090;28;20205;-66
2022/11/24 10:40:32;;;;;;;0.63;0.50;;;;;;;;;;20989293;28;20233;-66
2022/11/24 10:50:36;;;;;;;2.63;0.40;;;;;;;;;;20969019;28;20212;-66
2022/11/24 11:00:37;;;;;;;0.37;0.20;;;;;;;;;;20986363;28;20213;-66
2022/11/24 11:10:40;;;;;;;3.40;0.70;;;10.00;99.90;;;;;;20985350;28;20201;-66
2022/11/24 11:20:49;;;;;;;1.50;0.70;;;;;;;;;;20984305;28;20306;-66
2022/11/24 11:30:58;;;;;;;1.80;0.70;;;;;;;;;;20983832;28;20221;-67
2022/11/24 11:41:01;;;;;;;3.27;0.73;;;;;;;;;;20983032;28;20213;-67
2022/11/24 11:51:27;;;;;;;3.00;0.70;;;10.80;99.90;;;;;;20983415;28;20217;-67
2022/11/24 12:01:28;;;;;;;0.70;0.40;;;;;;;;;;20985525;28;20209;-67
2022/11/24 12:12:05;;;;;;;1.37;0.60;;;10.30;99.90;;;;;;20967432;28;20250;-67
2022/11/24 12:22:39;;;;;;;1.60;0.63;;;10.50;99.90;;;;;;20983726;28;20262;-67
2022/11/24 12:32:41;;;;;;;2.30;0.70;;;;;;;;;;20966305;28;20776;-67
2022/11/24 12:42:43;;;;;;;4.57;0.80;;;;;;;;;;20984565;28;20246;-67
2022/11/24 12:52:52;;;;;;;0.80;0.40;;;10.90;99.90;;;;;;20983519;28;20263;-66
2022/11/24 13:02:59;;;;;;;1.80;0.93;;;10.80;99.90;;;;;;20984152;28;20225;-67
2022/11/24 13:13:02;;;;;;;0.93;0.50;;;;;;;;;;20964877;28;20205;-67
2022/11/24 13:23:04;;;;;;;1.63;0.50;;;;;;;;;;20982039;28;20761;-67
2022/11/24 13:33:12;;;;;;;4.60;0.73;;;;;;;;;;20996550;28;20266;-67
2022/11/24 13:43:14;;;;;;;1.43;0.70;;;;;;;;;;20995055;28;20504;-67
2022/11/24 13:53:43;;;;;;;2.60;1.23;;;10.60;99.90;;;;;;20995422;28;20240;-67
2022/11/24 14:03:57;;;;;;;1.37;0.60;;;;;;;;;;20994090;28;20229;-67
2022/11/24 14:14:11;;;;;;;1.43;0.70;;;10.30;99.90;;;;;;20994678;28;20544;-67
2022/11/24 14:24:31;;;;;;;1.23;0.40;;;10.30;99.90;;;;;;20992569;28;20765;-68
2022/11/24 14:34:35;;;;;;;1.10;0.43;;;10.20;99.90;;;;;;20975555;28;20201;-67
2022/11/24 14:44:39;;;;;;;2.80;0.40;;;10.20;99.90;;;;;;20992331;28;20220;-67
2022/11/24 14:54:50;;;;;;;5.63;1.10;;;;;;;;;;20982714;28;20577;-67
2022/11/24 15:04:56;;;;;;;4.17;0.70;;;;;;;;;;20970085;28;20703;-67
2022/11/24 15:15:19;;;;;;;0.87;0.50;;;;;;;;;;20984832;28;20652;-67
2022/11/24 15:25:31;;;;;;;3.50;1.33;;;;;;;;;;20983381;28;20243;-67
2022/11/24 15:35:33;;;;;;;2.50;0.90;;;;;;;;;;20967136;28;20201;-67
2022/11/24 15:45:35;;;;;;;5.60;1.33;;;;;;;;;;20965882;28;20239;-67
2022/11/24 15:55:36;;;;;;;5.60;1.67;;;;;;;;;;20965033;28;20220;-67
2022/11/24 16:05:39;;;;;;;2.33;0.90;;;;;;;;;;20982106;28;20233;-67
2022/11/24 16:15:40;;;;;;;1.73;1.00;;;;;;;;;;20983160;28;20242;-67
2022/11/24 16:25:43;;;;;;;9.07;2.97;;;;;;;;;;20984144;28;20621;-67
2022/11/24 16:35:48;;;;;;;2.17;0.60;;;9.30;99.90;;;;;;20983845;28;20205;-67
2022/11/24 16:46:08;;;;;;;3.17;0.60;;;;;;;;;;20984313;28;20331;-67
2022/11/24 16:56:10;;;;;;;5.00;2.50;;;;;;;;;;20965536;28;20216;-67
2022/11/24 17:06:14;;;;;;;5.80;2.13;;;;;;;;;;20996798;28;20256;-67
2022/11/24 17:16:17;;;;;;;9.57;4.80;;;;;;;;;;21000184;28;20671;-67
2022/11/24 17:26:19;;;;;;;4.47;2.60;;;;;;;;;;21026539;22;20380;-68
2022/11/24 17:36:21;;;;;;;1.97;0.90;;;8.60;99.90;;;;;;21123570;28;20273;-68
2022/11/24 17:46:24;;;;;;;1.10;0.77;;;;;;;;;;21162726;28;20224;-68
2022/11/24 17:56:26;;;;;;;1.33;0.80;;;;;;;;;;21161182;28;20903;-68
2022/11/24 18:06:28;;;;;;;1.93;0.87;;;;;;;;;;21158219;28;20208;-69
2022/11/24 18:16:32;;;;;;;3.47;1.77;;;;;;;;;;21139798;28;20227;-68
2022/11/24 18:26:34;;;;;;;5.30;2.90;;;;;;;;;;21132336;28;20520;-68
2022/11/24 18:36:36;;;;;;;5.83;2.63;;;;;;;;;;21154906;28;20257;-68
2022/11/24 18:46:38;;;;;;;4.20;1.97;;;;;;;;;;21152835;28;20796;-67
2022/11/24 18:56:40;;;;;;;4.23;2.30;;;;;;;;;;21153535;28;20284;-68
2022/11/24 19:06:41;;;;;;;4.87;1.73;;;;;;;;;;21148989;28;20208;-69
2022/11/24 19:16:43;;;;;;;4.67;2.00;;;;;;;;;;21146407;28;20208;-68
2022/11/24 19:26:45;;;;;;;2.70;1.77;;;;;;;;;;21126359;28;20211;-66
2022/11/24 19:36:47;;;;;;;4.63;1.83;;;;;;;;;;21145523;28;20203;-67
2022/11/24 19:46:49;;;;;;;4.47;2.27;;;;;;;;;;21125149;28;20860;-68
2022/11/24 19:56:54;;;;;;;2.87;0.90;;;;;;;;;;21124510;28;20771;-68
2022/11/24 20:06:56;;;;;;;2.63;1.10;;;;;;;;;;21123228;28;20602;-68
2022/11/24 20:16:58;;;;;;;2.37;0.90;;;;;;;;;;21136704;28;20272;-68
2022/11/24 20:27:00;;;;;;;1.73;1.00;;;;;;;;;;21132097;28;20722;-68
2022/11/24 20:37:02;;;;;;;2.27;1.00;;;;;;;;;;21121582;28;20234;-68
2022/11/24 20:47:05;;;;;;;4.90;1.90;;;;;;;;;;21119244;27;20632;-67
2022/11/24 20:57:07;;;;;;;3.33;1.77;;;;;;;;;;21145325;28;20204;-66
2022/11/24 21:07:12;;;;;;;5.63;2.60;;;;;;;;;;21146841;28;20252;-66
2022/11/24 21:17:15;;;;;;;3.20;1.43;;;;;;;;;;21112985;28;20207;-66
2022/11/24 21:27:17;;;;;;;2.80;1.67;;;;;;;;;;21144860;28;20220;-67
2022/11/24 21:37:19;;;;;;;3.93;1.87;;;;;;;;;;21126438;28;20634;-67
2022/11/24 21:47:21;;;;;;;4.23;1.70;;;;;;;;;;21150845;28;20199;-66
2022/11/24 21:57:23;;;;;;;2.80;1.43;;;;;;;;;;21156965;28;20637;-67
2022/11/24 22:07:24;;;;;;;3.90;1.97;;;;;;;;;;21160643;28;20615;-66
2022/11/24 22:17:29;;;;;;;5.07;2.17;;;6.90;99.90;;;;;;21160799;28;20253;-67
2022/11/24 22:27:31;;;;;;;3.67;2.00;;;;;;;;;;21160263;28;20204;-67
2022/11/24 22:37:34;;;;;;;3.60;1.57;;;;;;;;;;21157426;27;20281;-66
2022/11/24 22:47:36;;;;;;;3.73;1.57;;;;;;;;;;21158183;28;20289;-66
2022/11/24 22:57:37;;;;;;;3.67;1.80;;;;;;;;;;21156302;28;20625;-66
2022/11/24 23:07:39;;;;;;;2.97;1.13;;;;;;;;;;21157733;28;20269;-67
2022/11/24 23:17:41;;;;;;;3.30;1.10;;;;;;;;;;21155556;28;20227;-66
2022/11/24 23:27:43;;;;;;;2.77;1.23;;;;;;;;;;21122740;22;20232;-67
2022/11/24 23:37:44;;;;;;;2.53;1.23;;;;;;;;;;21072225;28;20208;-67
2022/11/24 23:47:46;;;;;;;2.53;1.37;;;;;;;;;;21070297;28;20547;-66
2022/11/24 23:57:48;;;;;;;1.80;1.00;;;;;;;;;;21068577;28;20592;-67
